Hovedside
METAR-TAF:

METAR-TAF

Lufthavner :

Halli lufthavn

Jämsä, Finland

breddegrad: 61-51N, lengdegrad: 024-48E, høyde over havet: 143 m

Gjeldene værobservasjon

Denne rapporten ble laget for 14 minutter siden, klokken 01:20 UTC
Vind 6 kt fra Øst-nordøst
Temperatur 0°C
Luftfuktighet 100%
Trykk 1009 hPa
Sikt 10 km eller mer
Overskyet i en høyde av 400 ft

METAR: EFHA 110120Z AUTO 06006KT 9999 OVC004 00/00 Q1009

Tid: 03:34 (01:34 UTC)

Varsel

Denne rapporten ble laget for 14 timer og 3 minutter siden, klokken 11:31 UTC
Varsel gyldig fra 10. klokken 12 UTC til 10. klokken 14 UTC
Vind 6 kt fra Øst
Sikt: 9000 m
Overskyet i en høyde av 300 ft
Sannsynlighet 40%
fra 10. klokken 12 UTC til 10. klokken 14 UTC
Sikt: 4000 m
dis

TAF: EFHA 101131Z 1012/1014 09006KT 9000 OVC003 PROB40 1012/1014 4000 BR

Værobservasjoner og værvarsel for over 4000 flyplasser (METAR- og TAF-rapporter).

Tilgjengelige stasjoner er representert av de røde og gule prikkene på kartet.

Hold musepekeren over prikken for å se navnet på stasjonen.

Klikk så for å se værobservasjoner og -varsler.

For å forandre kartet kan du klikke på den grønne knappen med svart kryss for å zoome inn, på den grønne knappen med strek for å zoome ut, eller på de grønne pilene for å se tilstøtende kart.


METAR-TAF: